UPS340 KSDF-TJSJ
Flight info
| Callsign | UPS340 |
|---|---|
| Flight time | N/A |
| Altitude | 35000 |
| Route | EEVAA1 SHIPR DCT SPA DCT DEDDY AR12 JAINS/M084F350 L451 LETON/N0491F350 DCT JORGG DCT FIPEK Y355 PLING RTE7 SAALR |
| Aircraft | B744/H-SDE3FGHIM1M2RWXY/LB1 |
Departure
| Time | 2026-05-01 14:54 |
|---|---|
| Airport | Louisville Muhammad Ali International Airport (KSDF) |
Arrival
| Time | N/A |
|---|---|
| Airport | Luis Munoz Marin International Airport (TJSJ) |
| Time | Latitude | Longitude | Altitude | Speed | Heading |
|---|---|---|---|---|---|
| 2026-05-01 14:42 | 38.15752 | -85.73579 | 497 ft | 0 kts | 81° |
| 2026-05-01 14:51 | 38.15758 | -85.73615 | 489 ft | 0 kts | 343° |
| 2026-05-01 14:52 | 38.15768 | -85.73619 | 497 ft | 6 kts | 343° |
| 2026-05-01 14:53 | 38.15837 | -85.73650 | 488 ft | 11 kts | 320° |
| 2026-05-01 14:53 | 38.15861 | -85.73755 | 488 ft | 16 kts | 261° |
| 2026-05-01 14:53 | 38.15837 | -85.73903 | 494 ft | 12 kts | 275° |
| 2026-05-01 14:53 | 38.15855 | -85.73940 | 487 ft | 3 kts | 338° |
| 2026-05-01 14:54 | 38.15969 | -85.73979 | 488 ft | 60 kts | 345° |
| 2026-05-01 14:54 | 38.16767 | -85.74243 | 486 ft | 170 kts | 346° |
| 2026-05-01 14:54 | 38.18059 | -85.74655 | 1224 ft | 205 kts | 341° |
| 2026-05-01 14:54 | 38.19511 | -85.75126 | 2273 ft | 224 kts | 342° |
| 2026-05-01 14:55 | 38.20942 | -85.75903 | 3254 ft | 231 kts | 328° |
| 2026-05-01 14:55 | 38.22392 | -85.76947 | 4365 ft | 243 kts | 327° |
| 2026-05-01 14:55 | 38.23885 | -85.78020 | 5627 ft | 251 kts | 326° |
| 2026-05-01 14:55 | 38.25438 | -85.79106 | 6869 ft | 262 kts | 331° |
| 2026-05-01 14:56 | 38.27284 | -85.79565 | 8044 ft | 281 kts | 353° |
| 2026-05-01 14:56 | 38.29275 | -85.79029 | 9076 ft | 311 kts | 17° |
| 2026-05-01 14:56 | 38.31140 | -85.77437 | 10065 ft | 337 kts | 41° |
| 2026-05-01 14:56 | 38.32434 | -85.74841 | 10901 ft | 362 kts | 69° |
| 2026-05-01 14:57 | 38.32732 | -85.71599 | 11772 ft | 379 kts | 99° |
| 2026-05-01 14:57 | 38.30787 | -85.65295 | 14017 ft | 379 kts | 131° |
| 2026-05-01 14:57 | 38.28960 | -85.62936 | 15145 ft | 373 kts | 152° |
| 2026-05-01 14:58 | 38.26831 | -85.61047 | 16369 ft | 372 kts | 152° |
| 2026-05-01 14:58 | 38.24653 | -85.59097 | 16846 ft | 399 kts | 151° |
| 2026-05-01 14:58 | 38.22370 | -85.56806 | 17005 ft | 435 kts | 145° |
| 2026-05-01 14:58 | 38.20116 | -85.54376 | 17691 ft | 451 kts | 145° |
| 2026-05-01 14:59 | 38.17667 | -85.51807 | 18574 ft | 461 kts | 146° |
| 2026-05-01 14:59 | 38.15146 | -85.49215 | 19427 ft | 470 kts | 147° |
| 2026-05-01 14:59 | 38.12594 | -85.46567 | 20313 ft | 478 kts | 147° |
| 2026-05-01 14:59 | 38.10013 | -85.43860 | 21216 ft | 485 kts | 147° |
| 2026-05-01 15:00 | 38.04735 | -85.38368 | 23010 ft | 500 kts | 148° |
| 2026-05-01 15:00 | 38.02014 | -85.35554 | 23817 ft | 508 kts | 148° |
| 2026-05-01 15:00 | 37.99343 | -85.32539 | 24523 ft | 524 kts | 141° |
| 2026-05-01 15:01 | 37.97039 | -85.28858 | 25172 ft | 543 kts | 129° |
| 2026-05-01 15:01 | 37.95228 | -85.24571 | 25778 ft | 560 kts | 117° |
| 2026-05-01 15:01 | 37.93998 | -85.19827 | 26361 ft | 574 kts | 106° |
| 2026-05-01 15:01 | 37.93155 | -85.14826 | 26907 ft | 585 kts | 102° |
| 2026-05-01 15:02 | 37.92458 | -85.09715 | 27419 ft | 594 kts | 101° |
| 2026-05-01 15:02 | 37.92072 | -85.06262 | 27768 ft | 600 kts | 96° |
| 2026-05-01 15:02 | 37.92120 | -84.99141 | 28447 ft | 611 kts | 83° |
| 2026-05-01 15:02 | 37.92581 | -84.93768 | 28917 ft | 618 kts | 81° |
| 2026-05-01 15:03 | 37.93146 | -84.88328 | 29384 ft | 626 kts | 80° |
| 2026-05-01 15:03 | 37.93663 | -84.82818 | 29835 ft | 634 kts | 82° |
| 2026-05-01 15:03 | 37.94102 | -84.77209 | 30288 ft | 641 kts | 83° |
| 2026-05-01 15:03 | 37.94556 | -84.71590 | 30868 ft | 643 kts | 82° |
| 2026-05-01 15:04 | 37.94971 | -84.65939 | 31498 ft | 644 kts | 88° |
| 2026-05-01 15:04 | 37.94779 | -84.60275 | 32163 ft | 643 kts | 99° |
| 2026-05-01 15:04 | 37.93906 | -84.54758 | 32807 ft | 637 kts | 111° |
| 2026-05-01 15:04 | 37.92381 | -84.49531 | 33464 ft | 626 kts | 123° |
| 2026-05-01 15:05 | 37.90298 | -84.44762 | 34107 ft | 612 kts | 134° |
| 2026-05-01 15:05 | 37.87757 | -84.40524 | 34672 ft | 593 kts | 143° |
| 2026-05-01 15:05 | 37.84936 | -84.36960 | 34994 ft | 572 kts | 153° |
| 2026-05-01 15:05 | 37.81801 | -84.33917 | 34952 ft | 554 kts | 159° |
| 2026-05-01 15:06 | 37.78710 | -84.31145 | 35020 ft | 550 kts | 160° |
| 2026-05-01 15:06 | 37.72443 | -84.25499 | 35029 ft | 561 kts | 159° |
| 2026-05-01 15:06 | 37.69233 | -84.22598 | 35040 ft | 573 kts | 158° |
| 2026-05-01 15:07 | 37.65990 | -84.19660 | 35046 ft | 574 kts | 158° |
| 2026-05-01 15:07 | 37.59469 | -84.13781 | 35039 ft | 576 kts | 159° |
| 2026-05-01 15:08 | 37.52929 | -84.07912 | 35019 ft | 578 kts | 159° |
| 2026-05-01 15:08 | 37.46399 | -84.02048 | 35027 ft | 577 kts | 159° |
| 2026-05-01 15:09 | 37.39845 | -83.96193 | 35029 ft | 579 kts | 159° |
| 2026-05-01 15:09 | 37.33287 | -83.90330 | 35029 ft | 577 kts | 158° |
| 2026-05-01 15:10 | 37.26690 | -83.84465 | 35034 ft | 582 kts | 159° |
| 2026-05-01 15:10 | 37.16801 | -83.75669 | 35034 ft | 582 kts | 159° |
| 2026-05-01 15:11 | 37.06918 | -83.66921 | 35034 ft | 582 kts | 159° |
| 2026-05-01 15:12 | 37.00288 | -83.61064 | 35021 ft | 584 kts | 159° |
| 2026-05-01 15:12 | 36.90330 | -83.52298 | 35024 ft | 584 kts | 159° |
| 2026-05-01 15:14 | 36.73708 | -83.37711 | 35013 ft | 580 kts | 159° |
| 2026-05-01 15:14 | 36.63816 | -83.29086 | 35012 ft | 580 kts | 159° |
| 2026-05-01 15:15 | 36.50577 | -83.17568 | 34996 ft | 580 kts | 158° |
| 2026-05-01 15:16 | 36.37374 | -83.06130 | 35015 ft | 580 kts | 158° |
| 2026-05-01 15:18 | 36.20780 | -82.91825 | 35030 ft | 581 kts | 158° |
| 2026-05-01 15:19 | 36.07477 | -82.80413 | 35024 ft | 581 kts | 158° |
| 2026-05-01 15:19 | 35.97590 | -82.71957 | 35000 ft | 575 kts | 158° |
| 2026-05-01 15:20 | 35.87719 | -82.63551 | 34982 ft | 574 kts | 158° |
| 2026-05-01 15:21 | 35.81141 | -82.57960 | 34986 ft | 573 kts | 158° |
| 2026-05-01 15:21 | 35.74552 | -82.52371 | 35008 ft | 575 kts | 158° |
| 2026-05-01 15:22 | 35.64686 | -82.44029 | 35003 ft | 573 kts | 158° |
| 2026-05-01 15:22 | 35.58103 | -82.38463 | 34985 ft | 573 kts | 158° |
| 2026-05-01 15:23 | 35.51496 | -82.32906 | 35016 ft | 574 kts | 158° |
| 2026-05-01 15:23 | 35.44905 | -82.27372 | 35033 ft | 581 kts | 158° |
| 2026-05-01 15:24 | 35.38281 | -82.21799 | 35058 ft | 577 kts | 158° |
| 2026-05-01 15:24 | 35.31658 | -82.16266 | 35062 ft | 575 kts | 158° |
| 2026-05-01 15:25 | 35.25039 | -82.10731 | 35059 ft | 575 kts | 158° |
| 2026-05-01 15:25 | 35.19532 | -82.06145 | 35047 ft | 577 kts | 157° |
| 2026-05-01 15:26 | 35.12893 | -82.00613 | 35050 ft | 577 kts | 158° |
| 2026-05-01 15:26 | 35.06244 | -81.95093 | 35062 ft | 577 kts | 158° |
| 2026-05-01 15:27 | 34.99688 | -81.89360 | 35079 ft | 583 kts | 154° |
| 2026-05-01 15:28 | 34.89992 | -81.80532 | 35063 ft | 581 kts | 154° |
| 2026-05-01 15:28 | 34.83496 | -81.74639 | 35054 ft | 582 kts | 154° |
| 2026-05-01 15:29 | 34.73805 | -81.65869 | 35044 ft | 581 kts | 154° |
| 2026-05-01 15:30 | 34.60826 | -81.54160 | 35042 ft | 580 kts | 154° |
| 2026-05-01 15:31 | 34.41343 | -81.36677 | 35036 ft | 580 kts | 153° |
| 2026-05-01 15:32 | 34.28313 | -81.25041 | 35049 ft | 583 kts | 153° |
| 2026-05-01 15:34 | 34.08737 | -81.07642 | 35038 ft | 584 kts | 152° |